Time;durP1;ratioP1;P1;durP2;ratioP2;P2;SDS_P1;SDS_P2;PMS_P1;PMS_P2;Temp;Humidity;BMP_temperature;BMP_pressure;BME280_temperature;BME280_humidity;BME280_pressure;Samples;Min_cycle;Max_cycle;Signal;HPM_P1;HPM_P2
2022/09/02 00:00:32;;;;;;;2.83;1.27;;;;;;;-144.47;100.00;61586.06;5061777;28;20413;-81
2022/09/02 00:02:57;;;;;;;1.90;1.30;;;;;;;-144.47;100.00;61586.06;5046617;28;20062;-81
2022/09/02 00:05:24;;;;;;;5.93;1.55;;;;;;;-144.47;100.00;61586.06;5056958;28;20033;-81
2022/09/02 00:07:50;;;;;;;4.00;1.90;;;;;;;-144.47;100.00;61586.06;5052309;28;20036;-80
2022/09/02 00:10:15;;;;;;;4.10;1.70;;;;;;;-144.47;100.00;61586.06;5057039;28;20038;-81
2022/09/02 00:12:41;;;;;;;1.65;1.33;;;;;;;-144.47;100.00;61586.06;5051369;28;20064;-81
2022/09/02 00:15:07;;;;;;;2.67;1.70;;;;;;;-144.47;100.00;61586.06;5052992;28;20447;-80
2022/09/02 00:17:33;;;;;;;1.95;1.63;;;;;;;-144.47;100.00;61586.06;5050057;28;20036;-80
2022/09/02 00:19:58;;;;;;;2.95;1.70;;;;;;;-144.47;100.00;61586.06;5049161;28;20032;-80
2022/09/02 00:22:24;;;;;;;3.08;1.80;;;;;;;-144.47;100.00;61586.06;5050299;28;20041;-80
2022/09/02 00:24:50;;;;;;;4.03;1.77;;;;;;;-144.47;100.00;61586.06;5051836;28;20068;-79
2022/09/02 00:27:16;;;;;;;3.75;1.50;;;;;;;-144.47;100.00;61586.06;5048733;28;20134;-78
2022/09/02 00:29:41;;;;;;;3.13;1.40;;;;;;;-144.47;100.00;61586.06;5039863;28;20032;-78
2022/09/02 00:32:07;;;;;;;3.42;1.73;;;;;;;-144.47;100.00;61586.06;5050978;28;20033;-78
2022/09/02 00:34:33;;;;;;;4.65;2.30;;;;;;;-144.47;100.00;61586.06;5054151;28;20032;-79
2022/09/02 00:36:58;;;;;;;2.28;1.90;;;;;;;-144.47;100.00;61586.06;5049387;28;20059;-79
2022/09/02 00:39:25;;;;;;;4.47;2.00;;;;;;;21.83;100.00;61586.06;5054043;28;20033;-78
2022/09/02 00:41:51;;;;;;;3.70;1.80;;;;;;;104.25;100.00;61586.06;5049911;28;20083;-78
2022/09/02 00:44:18;;;;;;;4.80;1.98;;;;;;;187.31;100.00;61586.06;5050471;28;20567;-78
2022/09/02 00:46:45;;;;;;;4.28;2.60;;;;;;;104.25;100.00;61586.06;5047201;28;20036;-78
2022/09/02 00:49:22;;;;;;;4.13;2.50;;;;;;;187.31;100.00;61586.06;5039115;28;20549;-79
2022/09/02 00:52:03;;;;;;;3.45;2.40;;;;;;;187.31;100.00;61586.06;5050998;28;20131;-80
2022/09/02 00:54:29;;;;;;;;;;;;;;;187.31;100.00;61586.06;5051226;28;20793;-79
2022/09/02 00:56:55;;;;;;;7.32;2.67;;;;;;;104.25;100.00;61586.06;5050060;28;20410;-80
2022/09/02 00:59:35;;;;;;;3.20;2.67;;;;;;;62.74;100.00;61586.06;5051397;28;20062;-79
2022/09/02 01:02:02;;;;;;;7.53;2.67;;;;;;;42.00;100.00;61586.06;5052967;28;20112;-79
2022/09/02 01:04:28;;;;;;;4.97;3.20;;;;;;;21.29;100.00;61586.06;5048588;28;20037;-79
2022/09/02 01:06:53;;;;;;;4.57;2.92;;;;;;;21.17;100.00;61586.06;5037176;28;20054;-79
2022/09/02 01:09:19;;;;;;;4.90;2.60;;;;;;;187.31;100.00;61586.06;5039979;28;20036;-79
2022/09/02 01:11:50;;;;;;;3.55;2.60;;;;;;;187.31;100.00;61586.06;5052878;28;20111;-79
2022/09/02 01:14:17;;;;;;;8.27;3.70;;;;;;;187.31;100.00;61586.06;5052810;28;20041;-78
2022/09/02 01:16:53;;;;;;;6.65;3.22;;;;;;;-144.47;100.00;61586.06;5049998;28;20622;-78
2022/09/02 01:19:24;;;;;;;4.97;3.25;;;;;;;-144.47;100.00;61586.06;5047299;28;20098;-78
2022/09/02 01:21:55;;;;;;;4.00;3.55;;;;;;;-144.47;100.00;61586.06;5038273;28;20033;-78
2022/09/02 01:24:25;;;;;;;5.20;3.50;;;;;;;-144.47;100.00;61586.06;5037820;28;20406;-79
2022/09/02 01:26:53;;;;;;;11.80;4.20;;;;;;;-144.47;100.00;61586.06;5036973;28;20580;-77
2022/09/02 01:29:22;;;;;;;8.73;4.13;;;;;;;-144.47;100.00;61586.06;5049956;28;20040;-79
2022/09/02 01:31:48;;;;;;;11.95;5.20;;;;;;;-144.47;100.00;61586.06;5022983;28;20473;-79
2022/09/02 01:34:14;;;;;;;9.15;5.28;;;;;;;-144.47;100.00;61586.06;5049778;28;20090;-80
2022/09/02 01:36:41;;;;;;;6.40;4.47;;;;;;;-144.47;100.00;61586.06;5022772;28;20126;-80
2022/09/02 01:39:08;;;;;;;6.68;5.22;;;;;;;187.31;100.00;61586.06;5038621;28;20045;-80
2022/09/02 01:41:34;;;;;;;5.85;5.07;;;;;;;-144.47;100.00;61586.06;5038953;28;20127;-80
2022/09/02 01:44:00;;;;;;;10.73;4.82;;;;;;;-144.47;100.00;61586.06;5037961;28;20037;-80
2022/09/02 01:46:26;;;;;;;9.50;4.60;;;;;;;-144.47;100.00;61586.06;5032202;28;20045;-81
2022/09/02 01:48:52;;;;;;;7.03;4.20;;;;;;;19.97;100.00;61586.06;5036845;28;20040;-81
2022/09/02 01:51:20;;;;;;;4.88;4.38;;;;;;;-144.47;100.00;61586.06;5038317;28;20039;-81
2022/09/02 01:53:47;;;;;;;4.53;4.07;;;;;;;-144.47;100.00;61586.06;5009348;28;20037;-81
2022/09/02 01:56:14;;;;;;;7.72;4.53;;;;;;;-144.47;100.00;61586.06;5017560;28;20057;-80
2022/09/02 01:58:40;;;;;;;6.05;4.22;;;;;;;20.13;100.00;61586.06;5015505;28;20043;-79
2022/09/02 02:01:06;;;;;;;7.20;4.30;;;;;;;-144.47;100.00;61586.06;5037814;28;20032;-79
2022/09/02 02:03:34;;;;;;;7.50;4.22;;;;;;;-144.47;100.00;61586.06;5037622;28;20037;-79
2022/09/02 02:06:01;;;;;;;5.57;4.28;;;;;;;-144.47;100.00;61586.06;5025290;28;20041;-79
2022/09/02 02:08:28;;;;;;;7.05;4.72;;;;;;;-144.47;100.00;61586.06;5036219;28;20557;-79
2022/09/02 02:10:56;;;;;;;7.13;4.35;;;;;;;-144.47;100.00;61586.06;5038225;28;20223;-80
2022/09/02 02:13:22;;;;;;;4.30;3.90;;;;;;;-144.47;100.00;61586.06;5037624;28;20033;-81
2022/09/02 02:15:47;;;;;;;5.38;4.22;;;;;;;-144.47;100.00;61586.06;5014097;28;20041;-80
2022/09/02 02:18:13;;;;;;;6.25;4.40;;;;;;;-144.47;100.00;61586.06;5036913;28;20065;-81
2022/09/02 02:20:39;;;;;;;8.93;4.78;;;;;;;-144.47;100.00;61586.06;5037013;28;20048;-79
2022/09/02 02:23:05;;;;;;;7.15;4.82;;;;;;;19.64;100.00;61586.06;5037063;28;20124;-80
2022/09/02 02:25:31;;;;;;;7.82;4.72;;;;;;;-144.47;100.00;61586.06;5038331;28;20104;-79
2022/09/02 02:27:57;;;;;;;7.30;5.75;;;;;;;187.31;100.00;61586.06;5037125;28;21294;-81
2022/09/02 02:30:23;;;;;;;6.22;4.88;;;;;;;-144.47;100.00;61586.06;5028441;28;20033;-80
2022/09/02 02:32:49;;;;;;;5.95;5.40;;;;;;;-144.47;100.00;61586.06;5041671;28;20166;-79
2022/09/02 02:35:18;;;;;;;6.57;4.82;;;;;;;-144.47;100.00;61586.06;5024478;28;20048;-80
2022/09/02 02:37:47;;;;;;;5.75;5.25;;;;;;;-144.47;100.00;61586.06;5040730;28;20033;-79
2022/09/02 02:40:15;;;;;;;6.05;4.85;;;;;;;19.97;100.00;61586.06;5034337;28;20393;-79
2022/09/02 02:42:41;;;;;;;8.60;6.40;;;;;;;-144.47;100.00;61586.06;5034921;28;20037;-80
2022/09/02 02:45:10;;;;;;;9.48;5.72;;;;;;;-144.47;100.00;61586.06;5028213;28;20072;-79
2022/09/02 02:47:45;;;;;;;5.60;5.10;;;;;;;-144.47;100.00;61586.06;5045266;28;20069;-80
2022/09/02 02:50:14;;;;;;;10.52;5.68;;;;;;;-144.47;100.00;61586.06;5052886;28;20040;-79
2022/09/02 02:52:40;;;;;;;8.20;5.55;;;;;;;-144.47;100.00;61586.06;5049045;28;20036;-79
2022/09/02 02:55:08;;;;;;;5.97;5.45;;;;;;;-144.47;100.00;61586.06;5042487;28;20593;-79
2022/09/02 02:57:35;;;;;;;6.00;5.40;;;;;;;19.19;100.00;61586.06;5037749;28;20044;-78
2022/09/02 03:00:11;;;;;;;6.80;5.53;;;;;;;19.64;100.00;61586.06;5036899;28;20745;-78
2022/09/02 03:02:37;;;;;;;7.75;5.70;;;;;;;19.97;100.00;61586.06;5046302;28;20075;-79
2022/09/02 03:05:05;;;;;;;10.45;5.97;;;;;;;19.97;100.00;61586.06;5037414;28;20039;-77
2022/09/02 03:07:31;;;;;;;7.72;5.45;;;;;;;19.97;100.00;61586.06;5027019;28;20132;-78
2022/09/02 03:09:56;;;;;;;7.47;5.50;;;;;;;19.97;100.00;61586.06;5037665;28;20041;-79
2022/09/02 03:12:22;;;;;;;8.52;6.13;;;;;;;19.97;100.00;61586.06;5054315;28;20049;-80
2022/09/02 03:14:49;;;;;;;8.35;5.75;;;;;;;187.31;100.00;61586.06;5044897;28;20033;-79
2022/09/02 03:17:16;;;;;;;7.20;6.20;;;;;;;19.97;100.00;61586.06;5048100;28;20041;-79
2022/09/02 03:19:43;;;;;;;7.03;6.05;;;;;;;19.97;100.00;61586.06;5043337;28;20064;-79
2022/09/02 03:22:09;;;;;;;7.63;6.07;;;;;;;19.56;100.00;61586.06;5053374;28;20060;-81
2022/09/02 03:24:37;;;;;;;7.70;5.80;;;;;;;19.64;100.00;61586.06;5049315;28;20039;-79
2022/09/02 03:27:04;;;;;;;7.85;5.90;;;;;;;19.59;100.00;61586.06;5066317;28;20592;-80
2022/09/02 03:29:29;;;;;;;8.88;6.28;;;;;;;19.97;100.00;61586.06;5055902;28;20191;-82
2022/09/02 03:31:56;;;;;;;6.80;6.13;;;;;;;19.97;100.00;61586.06;5041008;28;20037;-83
2022/09/02 03:34:22;;;;;;;7.50;6.80;;;;;;;19.97;100.00;61586.06;5054639;28;20044;-82
2022/09/02 03:36:48;;;;;;;6.15;5.63;;;;;;;19.46;100.00;61586.06;5056683;28;20045;-83
2022/09/02 03:39:13;;;;;;;6.93;6.25;;;;;;;187.31;100.00;61586.06;5063082;28;20033;-83
2022/09/02 03:41:41;;;;;;;8.80;6.35;;;;;;;19.48;100.00;61586.06;5043718;28;20396;-81
2022/09/02 03:44:09;;;;;;;6.78;5.90;;;;;;;19.97;100.00;61586.06;5053845;28;20037;-80
2022/09/02 03:46:36;;;;;;;7.10;6.40;;;;;;;19.97;100.00;61586.06;5037366;28;20044;-81
2022/09/02 03:49:03;;;;;;;10.18;6.35;;;;;;;19.97;100.00;61586.06;5035154;28;20438;-79
2022/09/02 03:51:30;;;;;;;7.05;6.30;;;;;;;19.97;100.00;61586.06;5050600;28;20067;-78
2022/09/02 03:53:56;;;;;;;7.72;6.18;;;;;;;19.97;100.00;61586.06;5042152;28;20044;-79
2022/09/02 03:56:24;;;;;;;9.88;6.13;;;;;;;-144.47;100.00;61586.06;5038989;28;20052;-79
2022/09/02 03:58:51;;;;;;;9.75;6.18;;;;;;;-144.47;100.00;61586.06;5039709;28;20186;-79
2022/09/02 04:01:23;;;;;;;10.15;6.57;;;;;;;-144.47;100.00;61586.06;5037903;28;20041;-80
2022/09/02 04:03:50;;;;;;;6.60;5.97;;;;;;;-144.47;100.00;61586.06;5056128;28;20051;-80
2022/09/02 04:06:19;;;;;;;6.82;6.15;;;;;;;-144.47;100.00;61586.06;5036937;28;20032;-79
2022/09/02 04:08:46;;;;;;;8.80;6.78;;;;;;;-144.47;100.00;61586.06;5032392;28;20037;-79
2022/09/02 04:11:16;;;;;;;7.78;6.07;;;;;;;-144.47;100.00;61586.06;5044750;28;20086;-80
2022/09/02 04:13:45;;;;;;;6.95;6.32;;;;;;;-144.47;100.00;61586.06;5040080;28;20045;-79
2022/09/02 04:16:19;;;;;;;7.55;6.65;;;;;;;19.97;100.00;61586.06;5049442;28;20346;-81
2022/09/02 04:18:45;;;;;;;7.28;6.57;;;;;;;-144.47;100.00;61586.06;5020804;28;20412;-79
2022/09/02 04:21:11;;;;;;;7.25;6.43;;;;;;;-144.47;100.00;61586.06;5039136;28;20547;-79
2022/09/02 04:23:37;;;;;;;14.15;7.00;;;;;;;-144.47;100.00;61586.06;5041420;28;20679;-80
2022/09/02 04:26:11;;;;;;;7.32;6.32;;;;;;;-144.47;100.00;61586.06;5041300;28;20039;-80
2022/09/02 04:28:37;;;;;;;7.55;6.82;;;;;;;-144.47;100.00;61586.06;5045539;28;20041;-83
2022/09/02 04:31:05;;;;;;;7.30;6.60;;;;;;;-144.47;100.00;61586.06;5059058;28;20118;-82
2022/09/02 04:33:31;;;;;;;7.32;6.63;;;;;;;-144.47;100.00;61586.06;5030126;28;20957;-85
2022/09/02 04:35:57;;;;;;;7.13;6.47;;;;;;;-144.47;100.00;61586.06;4990599;28;20945;-83
2022/09/02 04:38:23;;;;;;;7.28;6.63;;;;;;;-144.47;100.00;61586.06;5018141;28;20160;-80
2022/09/02 04:40:49;;;;;;;8.10;5.40;;;;;;;-144.47;100.00;61586.06;5030422;28;20555;-82
2022/09/02 04:43:17;;;;;;;6.30;5.70;;;;;;;-144.47;100.00;61586.06;5023314;28;20111;-82
2022/09/02 04:45:44;;;;;;;6.57;6.03;;;;;;;-144.47;100.00;61586.06;5017672;28;20034;-82
2022/09/02 04:48:12;;;;;;;6.63;5.95;;;;;;;19.42;100.00;61586.06;5016544;28;20115;-79
2022/09/02 04:50:40;;;;;;;6.60;6.00;;;;;;;19.97;100.00;61586.06;5026976;28;20037;-81
2022/09/02 04:53:07;;;;;;;7.85;5.15;;;;;;;-144.47;100.00;61586.06;5029113;28;20057;-79
2022/09/02 04:55:34;;;;;;;7.28;5.80;;;;;;;19.97;100.00;61586.06;5015123;28;20136;-80
2022/09/02 04:58:00;;;;;;;6.63;5.70;;;;;;;19.97;100.00;61586.06;5015567;28;20421;-81
2022/09/02 05:00:26;;;;;;;10.15;6.03;;;;;;;-144.47;100.00;61586.06;5020249;28;20371;-83
2022/09/02 05:02:53;;;;;;;6.60;5.60;;;;;;;19.15;100.00;61586.06;5032313;28;20049;-82
2022/09/02 05:05:20;;;;;;;6.03;5.53;;;;;;;-144.47;100.00;61586.06;5023450;28;20391;-82
2022/09/02 05:07:46;;;;;;;6.28;5.65;;;;;;;-144.47;100.00;61586.06;5019081;28;20778;-83
2022/09/02 05:10:12;;;;;;;7.22;6.30;;;;;;;-144.47;100.00;61586.06;5026177;28;20041;-80
2022/09/02 05:12:41;;;;;;;7.03;6.43;;;;;;;-144.47;100.00;61586.06;5025614;28;20032;-81
2022/09/02 05:15:08;;;;;;;6.90;6.30;;;;;;;-144.47;100.00;61586.06;5015456;28;20042;-79
2022/09/02 05:17:35;;;;;;;6.82;6.22;;;;;;;19.97;100.00;61586.06;5013002;28;20477;-79
2022/09/02 05:20:04;;;;;;;8.00;6.95;;;;;;;-144.47;100.00;61586.06;5009286;28;20402;-79
2022/09/02 05:22:32;;;;;;;7.13;6.43;;;;;;;-144.47;100.00;61586.06;5027837;28;20175;-80
2022/09/02 05:24:59;;;;;;;7.75;6.65;;;;;;;-144.47;100.00;61586.06;5006545;28;20033;-80
2022/09/02 05:27:27;;;;;;;7.78;6.85;;;;;;;-144.47;100.00;61586.06;5016813;28;20343;-85
2022/09/02 05:29:54;;;;;;;8.43;6.72;;;;;;;-144.47;100.00;61586.06;5018311;28;20048;-85
2022/09/02 05:32:21;;;;;;;7.53;6.80;;;;;;;-144.47;100.00;61586.06;5024029;28;20035;-84
2022/09/02 05:34:49;;;;;;;7.57;6.95;;;;;;;-144.47;100.00;61586.06;5024834;28;20155;-74
2022/09/02 05:37:15;;;;;;;8.98;7.25;;;;;;;-144.47;100.00;61586.06;5029473;28;20069;-77
2022/09/02 05:39:41;;;;;;;7.72;6.90;;;;;;;-144.47;100.00;61586.06;5050865;28;20123;-75
2022/09/02 05:42:07;;;;;;;7.80;6.70;;;;;;;19.14;100.00;61586.06;5031753;28;20135;-76
2022/09/02 05:44:35;;;;;;;7.35;6.78;;;;;;;-144.47;100.00;61586.06;5058293;28;20036;-79
2022/09/02 05:47:03;;;;;;;7.63;6.93;;;;;;;-144.47;100.00;61586.06;5029600;28;20067;-78
2022/09/02 05:49:30;;;;;;;7.63;5.60;;;;;;;19.97;100.00;61586.06;5040471;28;20101;-78
2022/09/02 05:52:08;;;;;;;12.50;5.25;;;;;;;-144.47;100.00;61586.06;5050499;28;20133;-78
2022/09/02 05:54:48;;;;;;;6.78;6.07;;;;;;;-144.47;100.00;61586.06;5048710;28;20109;-77
2022/09/02 05:57:16;;;;;;;7.47;5.63;;;;;;;19.97;100.00;61586.06;5033573;28;20040;-78
2022/09/02 06:00:07;;;;;;;5.53;5.03;;;;;;;19.97;100.00;61586.06;5053254;28;20064;-77
2022/09/02 06:02:44;;;;;;;7.22;4.82;;;;;;;19.97;100.00;61586.06;5020237;28;20040;-79
2022/09/02 06:05:28;;;;;;;4.50;3.95;;;;;;;19.97;100.00;61586.06;5057291;28;20062;-80
2022/09/02 06:08:05;;;;;;;4.13;3.83;;;;;;;19.97;100.00;61586.06;5028934;28;20036;-79
2022/09/02 06:10:32;;;;;;;6.82;4.38;;;;;;;-144.47;100.00;61586.06;5027038;28;20503;-80
2022/09/02 06:12:58;;;;;;;5.95;5.45;;;;;;;-144.47;100.00;61586.06;5042383;28;20043;-79
2022/09/02 06:15:29;;;;;;;6.85;5.95;;;;;;;-144.47;100.00;61586.06;5036620;28;20511;-77
2022/09/02 06:17:58;;;;;;;5.40;4.97;;;;;;;-144.47;100.00;61586.06;5034238;28;20029;-77
2022/09/02 06:20:27;;;;;;;6.20;4.85;;;;;;;-144.47;100.00;61586.06;5035842;28;20029;-77
2022/09/02 06:22:54;;;;;;;5.95;4.50;;;;;;;-144.47;100.00;61586.06;5037123;28;20438;-79
2022/09/02 06:25:19;;;;;;;4.88;4.22;;;;;;;-144.47;100.00;61586.06;5036313;28;20040;-78
2022/09/02 06:27:46;;;;;;;5.43;4.55;;;;;;;-144.47;100.00;61586.06;5034941;28;20032;-77
2022/09/02 06:30:12;;;;;;;6.90;5.43;;;;;;;-144.47;100.00;61586.06;5048601;28;20084;-78
2022/09/02 06:32:39;;;;;;;11.73;5.47;;;;;;;-144.47;100.00;61586.06;5041283;28;20091;-76
2022/09/02 06:35:09;;;;;;;9.00;5.13;;;;;;;-144.47;100.00;61586.06;5015160;28;20128;-75
2022/09/02 06:37:37;;;;;;;5.55;5.07;;;;;;;-144.47;100.00;61586.06;5046458;28;20033;-76
2022/09/02 06:40:03;;;;;;;8.13;4.88;;;;;;;-144.47;100.00;61586.06;5048598;28;20541;-77
2022/09/02 06:42:30;;;;;;;6.22;4.75;;;;;;;-144.47;100.00;61586.06;5035029;28;20028;-74
2022/09/02 06:45:11;;;;;;;6.25;5.43;;;;;;;19.97;100.00;61586.06;5030397;28;20033;-74
2022/09/02 06:47:38;;;;;;;5.22;4.72;;;;;;;19.97;100.00;61586.06;5040165;28;20160;-76
2022/09/02 06:50:04;;;;;;;7.03;4.32;;;;;;;19.97;100.00;61586.06;5044771;28;20452;-78
2022/09/02 06:52:31;;;;;;;8.75;5.07;;;;;;;19.97;100.00;61586.06;5035874;28;20484;-77
2022/09/02 06:54:56;;;;;;;5.38;4.88;;;;;;;19.97;100.00;61586.06;5043558;28;20732;-73
2022/09/02 06:57:23;;;;;;;6.65;5.00;;;;;;;19.97;100.00;61586.06;5050908;28;20044;-74
2022/09/02 06:59:49;;;;;;;5.90;5.05;;;;;;;19.97;100.00;61586.06;5036399;28;20048;-76
2022/09/02 07:02:17;;;;;;;10.23;5.45;;;;;;;19.97;100.00;61586.06;5050164;28;20091;-78
2022/09/02 07:07:28;;;;;;;6.43;5.72;;;;;;;19.97;100.00;61586.06;5051494;28;20050;-75
2022/09/02 07:10:00;;;;;;;8.55;5.30;;;;;;;19.97;100.00;61586.06;5039274;28;20127;-75
2022/09/02 07:12:26;;;;;;;7.43;5.45;;;;;;;-144.47;100.00;61586.06;5049504;28;20163;-75
2022/09/02 07:15:00;;;;;;;8.23;5.40;;;;;;;-144.47;100.00;61586.06;5053532;28;20051;-74
2022/09/02 07:17:32;;;;;;;5.57;5.07;;;;;;;-144.47;100.00;61586.06;5039557;28;20439;-75
2022/09/02 07:20:04;;;;;;;7.78;5.38;;;;;;;-144.47;100.00;61586.06;5039882;28;20044;-75
2022/09/02 07:22:37;;;;;;;7.78;4.80;;;;;;;-144.47;100.00;61586.06;5052415;28;20115;-75
2022/09/02 07:25:04;;;;;;;5.43;4.30;;;;;;;-144.47;100.00;61586.06;5051861;28;20045;-75
2022/09/02 07:27:30;;;;;;;5.68;5.13;;;;;;;-144.47;100.00;61586.06;5038898;28;20041;-74
2022/09/02 07:29:56;;;;;;;5.25;4.85;;;;;;;-144.47;100.00;61586.06;5039779;28;20816;-74
2022/09/02 07:32:23;;;;;;;5.60;5.05;;;;;;;-144.47;100.00;61586.06;5049581;28;20281;-76
2022/09/02 07:34:48;;;;;;;7.68;5.00;;;;;;;19.97;100.00;61586.06;5038991;28;20686;-75
2022/09/02 07:37:14;;;;;;;5.80;5.22;;;;;;;187.31;100.00;61586.06;5031910;28;20124;-75
2022/09/02 07:39:43;;;;;;;5.28;4.82;;;;;;;187.31;100.00;61586.06;5021326;28;20443;-74
2022/09/02 07:42:10;;;;;;;5.68;4.80;;;;;;;21.26;100.00;61586.06;5021011;28;20060;-74
2022/09/02 07:44:37;;;;;;;5.25;4.78;;;;;;;21.26;100.00;61586.06;5025412;28;20033;-74
2022/09/02 07:47:05;;;;;;;7.57;4.75;;;;;;;21.26;100.00;61586.06;5010409;28;20531;-74
2022/09/02 07:49:32;;;;;;;6.90;5.30;;;;;;;187.31;100.00;61586.06;5031198;28;20463;-74
2022/09/02 07:51:58;;;;;;;6.68;5.80;;;;;;;21.26;100.00;61586.06;5012755;28;20122;-73
2022/09/02 07:54:26;;;;;;;7.85;5.10;;;;;;;-144.47;100.00;61586.06;5020926;28;20133;-75
2022/09/02 07:56:53;;;;;;;10.80;5.85;;;;;;;-144.47;100.00;61586.06;5022254;28;20045;-75
2022/09/02 07:59:20;;;;;;;9.52;4.57;;;;;;;21.26;100.00;61586.06;5021576;28;20041;-74
2022/09/02 08:01:50;;;;;;;5.38;4.93;;;;;;;21.26;100.00;61586.06;5030982;28;20076;-75
2022/09/02 08:04:17;;;;;;;5.38;4.88;;;;;;;-144.47;100.00;61586.06;5031033;28;20400;-75
2022/09/02 08:06:44;;;;;;;7.30;5.00;;;;;;;21.26;100.00;61586.06;5026300;28;20055;-74
2022/09/02 08:09:10;;;;;;;6.15;4.50;;;;;;;21.26;100.00;61586.06;5027642;28;20052;-74
2022/09/02 08:11:39;;;;;;;5.60;4.97;;;;;;;21.26;100.00;61586.06;5020364;28;20099;-73
2022/09/02 08:14:08;;;;;;;6.97;5.20;;;;;;;21.26;100.00;61586.06;5021879;28;20044;-74
2022/09/02 08:16:34;;;;;;;8.65;6.15;;;;;;;21.26;100.00;61586.06;5021399;28;20087;-75
2022/09/02 08:18:59;;;;;;;7.60;6.03;;;;;;;21.26;100.00;61586.06;5023011;28;20448;-76
2022/09/02 08:21:26;;;;;;;7.20;6.07;;;;;;;21.26;100.00;61586.06;5016580;28;20095;-75
2022/09/02 08:23:52;;;;;;;6.88;5.97;;;;;;;21.26;100.00;61586.06;5012877;28;20363;-74
2022/09/02 08:26:18;;;;;;;6.35;5.75;;;;;;;-144.47;100.00;61586.06;5021667;28;20056;-74
2022/09/02 08:28:44;;;;;;;8.27;7.47;;;;;;;-144.47;100.00;61586.06;5021455;28;20060;-75
2022/09/02 08:31:10;;;;;;;9.23;8.27;;;;;;;20.53;100.00;61586.06;5019465;28;20108;-75
2022/09/02 08:33:35;;;;;;;10.30;9.27;;;;;;;-144.47;100.00;61586.06;5024905;28;20061;-76
2022/09/02 08:36:07;;;;;;;9.65;8.93;;;;;;;-144.47;100.00;61586.06;5027239;28;20057;-76
2022/09/02 08:38:34;;;;;;;10.75;9.65;;;;;;;-144.47;100.00;61586.06;5035887;28;20033;-76
2022/09/02 08:41:00;;;;;;;14.05;10.48;;;;;;;20.86;100.00;61586.06;5029581;28;20087;-76
2022/09/02 08:43:37;;;;;;;11.88;10.32;;;;;;;-144.47;100.00;61586.06;5039114;28;20041;-75
2022/09/02 08:46:03;;;;;;;10.70;9.80;;;;;;;187.31;100.00;61586.06;5020347;28;20495;-75
2022/09/02 08:48:51;;;;;;;10.77;9.88;;;;;;;-144.47;100.00;61586.06;5036551;28;20150;-75
2022/09/02 08:51:31;;;;;;;11.05;9.95;;;;;;;-144.47;100.00;61586.06;5037728;28;20143;-75
2022/09/02 08:54:04;;;;;;;9.88;8.95;;;;;;;-144.47;100.00;61586.06;5037065;28;20037;-75
2022/09/02 08:56:31;;;;;;;9.63;8.80;;;;;;;-144.47;100.00;61586.06;5036288;28;20047;-75
2022/09/02 08:58:56;;;;;;;9.80;8.80;;;;;;;-144.47;100.00;61586.06;5036595;28;20043;-75
2022/09/02 09:01:31;;;;;;;9.40;8.10;;;;;;;-144.47;100.00;61586.06;5037768;28;20695;-75
2022/09/02 09:04:17;;;;;;;9.82;8.05;;;;;;;-144.47;100.00;61586.06;5028887;28;20113;-75
2022/09/02 09:07:06;;;;;;;9.07;7.50;;;;;;;-144.47;100.00;61586.06;5035451;28;20056;-75
2022/09/02 09:09:42;;;;;;;7.78;7.00;;;;;;;21.40;100.00;61586.06;5026868;28;20055;-75
2022/09/02 09:12:47;;;;;;;7.78;7.07;;;;;;;-144.47;100.00;61586.06;5037527;28;20033;-75
2022/09/02 09:15:36;;;;;;;7.60;6.65;;;;;;;-144.47;100.00;61586.06;5010157;28;20049;-76
2022/09/02 09:18:07;;;;;;;7.80;7.03;;;;;;;-144.47;100.00;61586.06;5035309;28;20069;-75
2022/09/02 09:20:39;;;;;;;6.70;6.20;;;;;;;21.75;100.00;61586.06;5017624;28;20051;-75
2022/09/02 09:23:29;;;;;;;7.40;6.75;;;;;;;187.31;100.00;61586.06;5036368;28;20033;-76
2022/09/02 09:26:04;;;;;;;8.10;6.57;;;;;;;104.25;100.00;61586.06;5024921;28;20048;-75
2022/09/02 09:28:30;;;;;;;7.55;6.93;;;;;;;187.31;100.00;61586.06;5035211;28;20043;-75
2022/09/02 09:30:59;;;;;;;7.95;7.32;;;;;;;21.54;100.00;61586.06;5018987;28;20045;-76
2022/09/02 09:33:25;;;;;;;7.38;6.88;;;;;;;187.31;100.00;61586.06;5036482;28;20029;-74
2022/09/02 09:35:53;;;;;;;9.30;6.82;;;;;;;-144.47;100.00;61586.06;5036456;28;20309;-75
2022/09/02 09:38:48;;;;;;;7.65;6.78;;;;;;;-144.47;100.00;61586.06;5034603;28;20037;-75
2022/09/02 09:41:15;;;;;;;6.63;6.05;;;;;;;42.00;100.00;61586.06;5019564;28;20118;-75
2022/09/02 09:43:41;;;;;;;6.18;5.68;;;;;;;-144.47;100.00;61586.06;5029221;28;20025;-74
2022/09/02 09:46:29;;;;;;;7.40;6.70;;;;;;;22.12;100.00;82481.25;5028556;28;20059;-75
2022/09/02 09:48:55;;;;;;;7.28;6.68;;;;;;;187.31;100.00;61586.06;5037288;28;20071;-77
2022/09/02 09:51:20;;;;;;;6.65;6.00;;;;;;;187.31;100.00;61586.06;5036547;28;20117;-76
2022/09/02 09:53:46;;;;;;;8.23;6.35;;;;;;;187.31;100.00;61586.06;5036644;28;20232;-77
2022/09/02 09:56:14;;;;;;;6.20;5.70;;;;;;;187.31;100.00;61586.06;5036152;28;20094;-75
2022/09/02 09:58:40;;;;;;;6.63;5.63;;;;;;;187.31;100.00;61586.06;5027121;28;20048;-76
2022/09/02 10:01:21;;;;;;;6.78;5.53;;;;;;;104.25;100.00;61586.06;5035977;28;20088;-74
2022/09/02 10:03:59;;;;;;;5.13;4.15;;;;;;;-144.47;100.00;61586.06;5036641;28;20130;-74
2022/09/02 10:06:31;;;;;;;3.25;2.95;;;;;;;-144.47;100.00;61586.06;5035599;28;20048;-74
2022/09/02 10:09:02;;;;;;;3.15;2.95;;;;;;;-144.47;100.00;61586.06;5036596;28;20032;-74
2022/09/02 10:11:34;;;;;;;4.75;3.38;;;;;;;-144.47;100.00;61586.06;5035895;28;20358;-75
2022/09/02 10:14:03;;;;;;;3.45;2.50;;;;;;;-144.47;100.00;61586.06;5018343;28;20041;-75
2022/09/02 10:16:43;;;;;;;2.90;2.45;;;;;;;-144.47;100.00;61586.06;5035546;28;20028;-75
2022/09/02 10:19:15;;;;;;;3.70;2.55;;;;;;;-144.47;100.00;61586.06;5035362;28;20797;-74
2022/09/02 10:22:05;;;;;;;4.70;2.53;;;;;;;-144.47;100.00;61586.06;5035758;28;20558;-76
2022/09/02 10:24:50;;;;;;;2.75;2.47;;;;;;;-144.47;100.00;61586.06;5036152;28;20815;-75
2022/09/02 10:27:23;;;;;;;2.65;2.10;;;;;;;-144.47;100.00;61586.06;5021066;28;20073;-75
2022/09/02 10:30:03;;;;;;;2.88;2.40;;;;;;;-144.47;100.00;61586.06;5035022;28;20041;-75
2022/09/02 10:32:42;;;;;;;4.35;2.60;;;;;;;-144.47;100.00;61586.06;5036654;28;20682;-74
2022/09/02 10:35:27;;;;;;;4.85;2.90;;;;;;;-144.47;100.00;61586.06;5035525;28;20630;-74
2022/09/02 10:37:59;;;;;;;2.70;2.40;;;;;;;-144.47;100.00;61586.06;5033854;28;20508;-75
2022/09/02 10:40:51;;;;;;;2.55;2.28;;;;;;;-144.47;100.00;61586.06;5015606;28;20120;-74
2022/09/02 10:43:42;;;;;;;2.60;2.40;;;;;;;-144.47;100.00;61586.06;5035861;28;20543;-74
2022/09/02 10:46:11;;;;;;;3.88;2.42;;;;;;;-144.47;100.00;61586.06;5030334;28;20909;-74
2022/09/02 10:49:04;;;;;;;6.72;2.92;;;;;;;-144.47;100.00;61586.06;5032801;28;20043;-74
2022/09/02 10:51:49;;;;;;;2.70;2.33;;;;;;;-144.47;100.00;61586.06;5018634;28;20592;-74
2022/09/02 10:54:41;;;;;;;2.10;2.00;;;;;;;-144.47;100.00;61586.06;5037235;28;20033;-75
2022/09/02 10:57:30;;;;;;;2.22;2.10;;;;;;;-144.47;100.00;61586.06;5034087;28;20037;-74
2022/09/02 10:59:55;;;;;;;2.63;2.08;;;;;;;187.31;100.00;61586.06;5035332;28;20665;-74
2022/09/02 11:02:29;;;;;;;4.38;2.00;;;;;;;-144.47;100.00;61586.06;5035813;28;20037;-74
2022/09/02 11:05:02;;;;;;;3.08;2.13;;;;;;;-144.47;100.00;61586.06;5018523;28;20053;-75
2022/09/02 11:07:59;;;;;;;2.30;2.10;;;;;;;-144.47;100.00;61586.06;5034605;28;20033;-76
2022/09/02 11:10:33;;;;;;;2.47;2.28;;;;;;;-144.47;100.00;61586.06;5035892;28;20091;-74
2022/09/02 11:13:02;;;;;;;2.50;2.22;;;;;;;62.74;100.00;61586.06;5036000;28;20557;-75
2022/09/02 11:15:43;;;;;;;4.70;2.70;;;;;;;-144.47;100.00;61586.06;5036091;28;20037;-75
2022/09/02 11:26:22;;;;;;;3.30;2.30;;;;;;;-144.47;100.00;61586.06;5037964;28;20591;-75
2022/09/02 11:28:58;;;;;;;5.93;2.70;;;;;;;-144.47;100.00;61586.06;5034837;28;20523;-76
2022/09/02 11:31:33;;;;;;;3.75;3.20;;;;;;;-144.47;100.00;61586.06;5036624;28;20048;-73
2022/09/02 11:34:33;;;;;;;3.35;3.05;;;;;;;-144.47;100.00;61586.06;5035485;28;20029;-74
2022/09/02 11:37:13;;;;;;;3.45;3.15;;;;;;;-144.47;100.00;61586.06;5026842;28;20481;-78